sensor_id;sensor_type;location;lat;lon;timestamp;P1;durP1;ratioP1;P2;durP2;ratioP2
77612;SDS011;66777;52.282;5.960;2023-07-31T00:01:49;782.78;;;743.97;;
77612;SDS011;66777;52.282;5.960;2023-07-31T00:04:14;781.72;;;743.10;;
77612;SDS011;66777;52.282;5.960;2023-07-31T00:06:40;778.70;;;740.33;;
77612;SDS011;66777;52.282;5.960;2023-07-31T00:09:05;783.67;;;745.28;;
77612;SDS011;66777;52.282;5.960;2023-07-31T00:11:31;780.17;;;741.80;;
77612;SDS011;66777;52.282;5.960;2023-07-31T00:13:57;785.42;;;747.05;;
77612;SDS011;66777;52.282;5.960;2023-07-31T00:16:23;784.10;;;745.58;;
77612;SDS011;66777;52.282;5.960;2023-07-31T00:18:49;782.03;;;743.67;;
77612;SDS011;66777;52.282;5.960;2023-07-31T00:21:14;779.60;;;741.08;;
77612;SDS011;66777;52.282;5.960;2023-07-31T00:23:40;781.75;;;743.20;;
77612;SDS011;66777;52.282;5.960;2023-07-31T00:26:05;781.60;;;743.42;;
77612;SDS011;66777;52.282;5.960;2023-07-31T00:28:31;783.40;;;744.92;;
77612;SDS011;66777;52.282;5.960;2023-07-31T00:30:57;780.10;;;741.85;;
77612;SDS011;66777;52.282;5.960;2023-07-31T00:33:22;780.67;;;742.13;;
77612;SDS011;66777;52.282;5.960;2023-07-31T00:35:48;780.33;;;742.22;;
77612;SDS011;66777;52.282;5.960;2023-07-31T00:38:13;775.65;;;738.00;;
77612;SDS011;66777;52.282;5.960;2023-07-31T00:40:39;778.15;;;739.50;;
77612;SDS011;66777;52.282;5.960;2023-07-31T00:43:05;778.53;;;740.25;;
77612;SDS011;66777;52.282;5.960;2023-07-31T00:45:31;783.17;;;745.00;;
77612;SDS011;66777;52.282;5.960;2023-07-31T00:47:57;782.00;;;743.25;;
77612;SDS011;66777;52.282;5.960;2023-07-31T00:50:24;775.00;;;736.78;;
77612;SDS011;66777;52.282;5.960;2023-07-31T00:52:50;777.63;;;739.42;;
77612;SDS011;66777;52.282;5.960;2023-07-31T00:55:16;784.25;;;745.63;;
77612;SDS011;66777;52.282;5.960;2023-07-31T00:57:42;782.38;;;743.90;;
77612;SDS011;66777;52.282;5.960;2023-07-31T01:00:10;780.75;;;742.33;;
77612;SDS011;66777;52.282;5.960;2023-07-31T01:02:36;783.50;;;745.20;;
77612;SDS011;66777;52.282;5.960;2023-07-31T01:05:02;780.75;;;742.53;;
77612;SDS011;66777;52.282;5.960;2023-07-31T01:10:23;783.20;;;745.08;;
77612;SDS011;66777;52.282;5.960;2023-07-31T01:12:52;777.65;;;739.28;;
77612;SDS011;66777;52.282;5.960;2023-07-31T01:15:18;782.83;;;744.17;;
77612;SDS011;66777;52.282;5.960;2023-07-31T01:17:45;779.67;;;741.38;;
77612;SDS011;66777;52.282;5.960;2023-07-31T01:20:18;781.83;;;743.53;;
77612;SDS011;66777;52.282;5.960;2023-07-31T01:28:23;775.38;;;737.47;;
77612;SDS011;66777;52.282;5.960;2023-07-31T01:30:54;778.03;;;739.88;;
77612;SDS011;66777;52.282;5.960;2023-07-31T01:33:23;785.50;;;747.28;;
77612;SDS011;66777;52.282;5.960;2023-07-31T01:35:49;787.22;;;748.72;;
77612;SDS011;66777;52.282;5.960;2023-07-31T01:38:15;781.50;;;743.35;;
77612;SDS011;66777;52.282;5.960;2023-07-31T01:43:15;774.85;;;737.17;;
77612;SDS011;66777;52.282;5.960;2023-07-31T01:45:41;780.55;;;742.17;;
77612;SDS011;66777;52.282;5.960;2023-07-31T01:48:06;779.97;;;741.63;;
77612;SDS011;66777;52.282;5.960;2023-07-31T01:50:32;779.10;;;740.28;;
77612;SDS011;66777;52.282;5.960;2023-07-31T01:52:57;782.20;;;744.03;;
77612;SDS011;66777;52.282;5.960;2023-07-31T01:55:23;777.97;;;739.70;;
77612;SDS011;66777;52.282;5.960;2023-07-31T01:57:49;785.28;;;746.95;;
77612;SDS011;66777;52.282;5.960;2023-07-31T02:00:14;781.83;;;743.42;;
77612;SDS011;66777;52.282;5.960;2023-07-31T02:02:40;782.95;;;744.63;;
77612;SDS011;66777;52.282;5.960;2023-07-31T02:05:06;778.97;;;740.75;;
77612;SDS011;66777;52.282;5.960;2023-07-31T02:07:31;782.85;;;744.53;;
77612;SDS011;66777;52.282;5.960;2023-07-31T02:09:57;777.58;;;739.15;;
77612;SDS011;66777;52.282;5.960;2023-07-31T02:12:22;782.28;;;743.83;;
77612;SDS011;66777;52.282;5.960;2023-07-31T02:14:48;786.90;;;748.33;;
77612;SDS011;66777;52.282;5.960;2023-07-31T02:17:14;782.00;;;743.38;;
77612;SDS011;66777;52.282;5.960;2023-07-31T02:19:39;784.33;;;745.80;;
77612;SDS011;66777;52.282;5.960;2023-07-31T02:22:05;784.20;;;745.20;;
77612;SDS011;66777;52.282;5.960;2023-07-31T02:24:30;779.58;;;740.88;;
77612;SDS011;66777;52.282;5.960;2023-07-31T02:26:56;784.75;;;745.92;;
77612;SDS011;66777;52.282;5.960;2023-07-31T02:29:22;781.00;;;742.47;;
77612;SDS011;66777;52.282;5.960;2023-07-31T02:31:48;784.90;;;746.40;;
77612;SDS011;66777;52.282;5.960;2023-07-31T02:34:13;781.25;;;742.78;;
77612;SDS011;66777;52.282;5.960;2023-07-31T02:36:39;782.10;;;742.97;;
77612;SDS011;66777;52.282;5.960;2023-07-31T02:39:05;781.20;;;743.05;;
77612;SDS011;66777;52.282;5.960;2023-07-31T02:41:30;784.00;;;745.72;;
77612;SDS011;66777;52.282;5.960;2023-07-31T02:43:56;777.63;;;739.33;;
77612;SDS011;66777;52.282;5.960;2023-07-31T02:46:21;778.63;;;740.40;;
77612;SDS011;66777;52.282;5.960;2023-07-31T02:48:50;777.88;;;739.30;;
77612;SDS011;66777;52.282;5.960;2023-07-31T02:51:16;777.47;;;738.78;;
77612;SDS011;66777;52.282;5.960;2023-07-31T02:53:42;783.72;;;745.22;;
77612;SDS011;66777;52.282;5.960;2023-07-31T02:56:07;780.78;;;741.60;;
77612;SDS011;66777;52.282;5.960;2023-07-31T02:58:33;778.03;;;738.78;;
77612;SDS011;66777;52.282;5.960;2023-07-31T03:00:59;788.53;;;748.90;;
77612;SDS011;66777;52.282;5.960;2023-07-31T03:03:24;779.65;;;740.33;;
77612;SDS011;66777;52.282;5.960;2023-07-31T03:05:50;780.08;;;740.60;;
77612;SDS011;66777;52.282;5.960;2023-07-31T03:08:16;783.13;;;742.70;;
77612;SDS011;66777;52.282;5.960;2023-07-31T03:10:41;778.45;;;738.58;;
77612;SDS011;66777;52.282;5.960;2023-07-31T03:13:07;784.97;;;744.70;;
77612;SDS011;66777;52.282;5.960;2023-07-31T03:15:32;783.05;;;742.05;;
77612;SDS011;66777;52.282;5.960;2023-07-31T03:17:58;782.33;;;741.70;;
77612;SDS011;66777;52.282;5.960;2023-07-31T03:20:24;788.33;;;747.55;;
77612;SDS011;66777;52.282;5.960;2023-07-31T03:22:49;778.92;;;738.00;;
77612;SDS011;66777;52.282;5.960;2023-07-31T03:25:15;785.67;;;745.15;;
77612;SDS011;66777;52.282;5.960;2023-07-31T03:27:40;781.33;;;740.55;;
77612;SDS011;66777;52.282;5.960;2023-07-31T03:30:06;782.65;;;742.42;;
77612;SDS011;66777;52.282;5.960;2023-07-31T03:32:32;788.08;;;747.25;;
77612;SDS011;66777;52.282;5.960;2023-07-31T03:34:58;781.35;;;740.60;;
77612;SDS011;66777;52.282;5.960;2023-07-31T03:37:24;783.60;;;741.90;;
77612;SDS011;66777;52.282;5.960;2023-07-31T03:39:49;787.80;;;747.40;;
77612;SDS011;66777;52.282;5.960;2023-07-31T03:42:15;783.60;;;742.30;;
77612;SDS011;66777;52.282;5.960;2023-07-31T03:44:40;784.25;;;743.67;;
77612;SDS011;66777;52.282;5.960;2023-07-31T03:47:06;789.78;;;748.50;;
77612;SDS011;66777;52.282;5.960;2023-07-31T03:49:32;790.58;;;749.33;;
77612;SDS011;66777;52.282;5.960;2023-07-31T03:51:57;788.53;;;747.92;;
77612;SDS011;66777;52.282;5.960;2023-07-31T03:54:23;785.95;;;745.72;;
77612;SDS011;66777;52.282;5.960;2023-07-31T03:56:49;785.50;;;744.08;;
77612;SDS011;66777;52.282;5.960;2023-07-31T03:59:14;779.95;;;739.75;;
77612;SDS011;66777;52.282;5.960;2023-07-31T04:01:40;783.35;;;741.90;;
77612;SDS011;66777;52.282;5.960;2023-07-31T04:04:06;783.95;;;743.53;;
77612;SDS011;66777;52.282;5.960;2023-07-31T04:06:31;779.55;;;738.58;;
77612;SDS011;66777;52.282;5.960;2023-07-31T04:08:57;788.30;;;747.20;;
77612;SDS011;66777;52.282;5.960;2023-07-31T04:11:22;780.17;;;739.75;;
77612;SDS011;66777;52.282;5.960;2023-07-31T04:13:48;781.50;;;740.33;;
77612;SDS011;66777;52.282;5.960;2023-07-31T04:16:14;786.92;;;746.42;;
77612;SDS011;66777;52.282;5.960;2023-07-31T04:18:39;778.25;;;737.25;;
77612;SDS011;66777;52.282;5.960;2023-07-31T04:21:05;786.45;;;745.67;;
77612;SDS011;66777;52.282;5.960;2023-07-31T04:23:30;790.72;;;748.67;;
77612;SDS011;66777;52.282;5.960;2023-07-31T04:25:56;780.20;;;740.15;;
77612;SDS011;66777;52.282;5.960;2023-07-31T04:28:22;789.38;;;747.47;;
77612;SDS011;66777;52.282;5.960;2023-07-31T04:30:47;781.20;;;740.80;;
77612;SDS011;66777;52.282;5.960;2023-07-31T04:33:13;789.38;;;749.03;;
77612;SDS011;66777;52.282;5.960;2023-07-31T04:35:38;782.08;;;741.15;;
77612;SDS011;66777;52.282;5.960;2023-07-31T04:38:04;780.28;;;739.60;;
77612;SDS011;66777;52.282;5.960;2023-07-31T04:40:30;779.20;;;739.33;;
77612;SDS011;66777;52.282;5.960;2023-07-31T04:42:55;777.25;;;737.03;;
77612;SDS011;66777;52.282;5.960;2023-07-31T04:45:21;777.63;;;736.55;;
77612;SDS011;66777;52.282;5.960;2023-07-31T04:47:46;784.40;;;743.80;;
77612;SDS011;66777;52.282;5.960;2023-07-31T04:50:12;791.33;;;750.03;;
77612;SDS011;66777;52.282;5.960;2023-07-31T04:52:38;780.17;;;740.05;;
77612;SDS011;66777;52.282;5.960;2023-07-31T04:55:03;787.25;;;746.97;;
77612;SDS011;66777;52.282;5.960;2023-07-31T04:57:29;787.17;;;745.78;;
77612;SDS011;66777;52.282;5.960;2023-07-31T04:59:55;787.28;;;744.97;;
77612;SDS011;66777;52.282;5.960;2023-07-31T05:02:20;784.47;;;743.33;;
77612;SDS011;66777;52.282;5.960;2023-07-31T05:04:46;788.22;;;747.40;;
77612;SDS011;66777;52.282;5.960;2023-07-31T05:07:11;788.05;;;746.45;;
77612;SDS011;66777;52.282;5.960;2023-07-31T05:09:37;784.63;;;743.80;;
77612;SDS011;66777;52.282;5.960;2023-07-31T05:12:04;786.65;;;746.10;;
77612;SDS011;66777;52.282;5.960;2023-07-31T05:14:30;786.97;;;746.25;;
77612;SDS011;66777;52.282;5.960;2023-07-31T05:16:56;782.85;;;741.85;;
77612;SDS011;66777;52.282;5.960;2023-07-31T05:19:22;778.30;;;738.53;;
77612;SDS011;66777;52.282;5.960;2023-07-31T05:21:48;784.53;;;744.00;;
77612;SDS011;66777;52.282;5.960;2023-07-31T05:24:14;788.95;;;747.88;;
77612;SDS011;66777;52.282;5.960;2023-07-31T05:26:39;785.45;;;744.95;;
77612;SDS011;66777;52.282;5.960;2023-07-31T05:29:05;786.97;;;746.17;;
77612;SDS011;66777;52.282;5.960;2023-07-31T05:31:31;785.85;;;745.10;;
77612;SDS011;66777;52.282;5.960;2023-07-31T05:33:57;785.13;;;745.05;;
77612;SDS011;66777;52.282;5.960;2023-07-31T05:36:23;784.53;;;744.17;;
77612;SDS011;66777;52.282;5.960;2023-07-31T05:38:48;786.15;;;745.60;;
77612;SDS011;66777;52.282;5.960;2023-07-31T05:41:14;781.35;;;740.85;;
77612;SDS011;66777;52.282;5.960;2023-07-31T05:43:40;783.85;;;743.47;;
77612;SDS011;66777;52.282;5.960;2023-07-31T05:46:06;786.25;;;746.38;;
77612;SDS011;66777;52.282;5.960;2023-07-31T05:48:32;789.13;;;748.28;;
77612;SDS011;66777;52.282;5.960;2023-07-31T05:50:59;788.35;;;747.83;;
77612;SDS011;66777;52.282;5.960;2023-07-31T05:53:26;784.30;;;744.38;;
77612;SDS011;66777;52.282;5.960;2023-07-31T05:55:51;787.35;;;746.72;;
77612;SDS011;66777;52.282;5.960;2023-07-31T05:58:18;786.08;;;745.85;;
77612;SDS011;66777;52.282;5.960;2023-07-31T06:00:44;782.45;;;742.42;;
77612;SDS011;66777;52.282;5.960;2023-07-31T06:03:10;786.65;;;746.63;;
77612;SDS011;66777;52.282;5.960;2023-07-31T06:05:35;781.90;;;741.92;;
77612;SDS011;66777;52.282;5.960;2023-07-31T06:08:01;780.05;;;740.08;;
77612;SDS011;66777;52.282;5.960;2023-07-31T06:10:27;780.60;;;741.17;;
77612;SDS011;66777;52.282;5.960;2023-07-31T06:12:53;784.88;;;745.42;;
77612;SDS011;66777;52.282;5.960;2023-07-31T06:15:19;781.75;;;742.33;;
77612;SDS011;66777;52.282;5.960;2023-07-31T06:17:44;783.10;;;743.38;;
77612;SDS011;66777;52.282;5.960;2023-07-31T06:20:10;781.97;;;742.75;;
77612;SDS011;66777;52.282;5.960;2023-07-31T06:22:36;774.92;;;736.13;;
77612;SDS011;66777;52.282;5.960;2023-07-31T06:25:02;777.63;;;738.75;;
77612;SDS011;66777;52.282;5.960;2023-07-31T06:27:28;780.75;;;741.60;;
77612;SDS011;66777;52.282;5.960;2023-07-31T06:29:53;784.15;;;744.85;;
77612;SDS011;66777;52.282;5.960;2023-07-31T06:32:19;783.28;;;744.05;;
77612;SDS011;66777;52.282;5.960;2023-07-31T06:34:45;781.95;;;742.50;;
77612;SDS011;66777;52.282;5.960;2023-07-31T06:37:10;782.72;;;743.85;;
77612;SDS011;66777;52.282;5.960;2023-07-31T06:39:36;778.67;;;739.42;;
77612;SDS011;66777;52.282;5.960;2023-07-31T06:42:02;780.92;;;741.95;;
77612;SDS011;66777;52.282;5.960;2023-07-31T06:44:28;782.10;;;743.15;;
77612;SDS011;66777;52.282;5.960;2023-07-31T06:46:54;776.88;;;738.03;;
77612;SDS011;66777;52.282;5.960;2023-07-31T06:49:19;778.00;;;738.78;;
77612;SDS011;66777;52.282;5.960;2023-07-31T06:51:45;778.53;;;739.38;;
77612;SDS011;66777;52.282;5.960;2023-07-31T06:54:10;781.17;;;742.33;;
77612;SDS011;66777;52.282;5.960;2023-07-31T06:56:36;788.33;;;748.40;;
77612;SDS011;66777;52.282;5.960;2023-07-31T06:59:02;787.95;;;748.10;;
77612;SDS011;66777;52.282;5.960;2023-07-31T07:01:28;779.33;;;740.05;;
77612;SDS011;66777;52.282;5.960;2023-07-31T07:03:57;781.55;;;741.70;;
77612;SDS011;66777;52.282;5.960;2023-07-31T07:06:24;780.58;;;741.35;;
77612;SDS011;66777;52.282;5.960;2023-07-31T07:08:57;784.55;;;745.00;;
77612;SDS011;66777;52.282;5.960;2023-07-31T07:11:22;777.05;;;737.83;;
77612;SDS011;66777;52.282;5.960;2023-07-31T07:13:48;781.70;;;743.05;;
77612;SDS011;66777;52.282;5.960;2023-07-31T07:16:14;781.85;;;742.53;;
77612;SDS011;66777;52.282;5.960;2023-07-31T07:18:40;778.83;;;739.83;;
77612;SDS011;66777;52.282;5.960;2023-07-31T07:21:05;781.13;;;741.92;;
77612;SDS011;66777;52.282;5.960;2023-07-31T07:23:31;788.63;;;749.40;;
77612;SDS011;66777;52.282;5.960;2023-07-31T07:25:56;782.58;;;743.70;;
77612;SDS011;66777;52.282;5.960;2023-07-31T07:28:22;781.20;;;742.38;;
77612;SDS011;66777;52.282;5.960;2023-07-31T07:30:51;789.25;;;749.97;;
77612;SDS011;66777;52.282;5.960;2023-07-31T07:33:18;786.55;;;747.42;;
77612;SDS011;66777;52.282;5.960;2023-07-31T07:35:44;786.42;;;747.08;;
77612;SDS011;66777;52.282;5.960;2023-07-31T07:38:09;789.17;;;749.88;;
77612;SDS011;66777;52.282;5.960;2023-07-31T07:40:40;788.45;;;748.95;;
77612;SDS011;66777;52.282;5.960;2023-07-31T07:43:06;787.50;;;747.75;;
77612;SDS011;66777;52.282;5.960;2023-07-31T07:45:32;783.40;;;744.25;;
77612;SDS011;66777;52.282;5.960;2023-07-31T07:47:57;781.33;;;742.05;;
77612;SDS011;66777;52.282;5.960;2023-07-31T07:50:24;780.80;;;741.45;;
77612;SDS011;66777;52.282;5.960;2023-07-31T07:52:49;782.90;;;743.30;;
77612;SDS011;66777;52.282;5.960;2023-07-31T07:55:15;789.70;;;750.03;;
77612;SDS011;66777;52.282;5.960;2023-07-31T07:57:41;786.42;;;746.58;;
77612;SDS011;66777;52.282;5.960;2023-07-31T08:00:07;780.70;;;741.15;;
77612;SDS011;66777;52.282;5.960;2023-07-31T08:02:35;781.35;;;741.92;;
77612;SDS011;66777;52.282;5.960;2023-07-31T08:05:01;788.90;;;749.20;;
77612;SDS011;66777;52.282;5.960;2023-07-31T08:07:26;779.17;;;739.50;;
77612;SDS011;66777;52.282;5.960;2023-07-31T08:09:52;783.63;;;744.03;;
77612;SDS011;66777;52.282;5.960;2023-07-31T08:12:18;784.63;;;745.03;;
77612;SDS011;66777;52.282;5.960;2023-07-31T08:14:44;785.78;;;746.83;;
77612;SDS011;66777;52.282;5.960;2023-07-31T08:17:10;782.22;;;742.50;;
77612;SDS011;66777;52.282;5.960;2023-07-31T08:19:35;793.22;;;753.38;;
77612;SDS011;66777;52.282;5.960;2023-07-31T08:22:01;783.25;;;743.83;;
77612;SDS011;66777;52.282;5.960;2023-07-31T08:24:26;783.70;;;744.45;;
77612;SDS011;66777;52.282;5.960;2023-07-31T08:26:52;793.42;;;753.63;;
77612;SDS011;66777;52.282;5.960;2023-07-31T08:29:18;786.13;;;746.38;;
77612;SDS011;66777;52.282;5.960;2023-07-31T08:31:43;785.15;;;745.35;;
77612;SDS011;66777;52.282;5.960;2023-07-31T08:34:09;791.13;;;751.05;;
77612;SDS011;66777;52.282;5.960;2023-07-31T08:36:35;784.60;;;744.72;;
77612;SDS011;66777;52.282;5.960;2023-07-31T08:39:00;787.20;;;746.88;;
77612;SDS011;66777;52.282;5.960;2023-07-31T08:41:26;790.80;;;750.33;;
77612;SDS011;66777;52.282;5.960;2023-07-31T08:43:52;789.75;;;749.47;;
77612;SDS011;66777;52.282;5.960;2023-07-31T08:46:20;789.40;;;749.33;;
77612;SDS011;66777;52.282;5.960;2023-07-31T08:48:46;784.00;;;743.83;;
77612;SDS011;66777;52.282;5.960;2023-07-31T08:51:13;786.03;;;746.22;;
77612;SDS011;66777;52.282;5.960;2023-07-31T08:53:40;791.47;;;751.30;;
77612;SDS011;66777;52.282;5.960;2023-07-31T08:56:06;793.28;;;752.92;;
77612;SDS011;66777;52.282;5.960;2023-07-31T08:58:32;787.13;;;747.13;;
77612;SDS011;66777;52.282;5.960;2023-07-31T09:01:03;787.15;;;747.17;;
77612;SDS011;66777;52.282;5.960;2023-07-31T09:03:32;792.08;;;751.75;;
77612;SDS011;66777;52.282;5.960;2023-07-31T09:06:00;789.33;;;748.75;;
77612;SDS011;66777;52.282;5.960;2023-07-31T09:08:30;790.47;;;749.95;;
77612;SDS011;66777;52.282;5.960;2023-07-31T09:10:59;792.08;;;751.72;;
77612;SDS011;66777;52.282;5.960;2023-07-31T09:13:28;793.53;;;752.88;;
77612;SDS011;66777;52.282;5.960;2023-07-31T09:15:55;788.58;;;747.80;;
77612;SDS011;66777;52.282;5.960;2023-07-31T09:18:21;788.08;;;747.78;;
77612;SDS011;66777;52.282;5.960;2023-07-31T09:21:09;787.28;;;746.95;;
77612;SDS011;66777;52.282;5.960;2023-07-31T09:23:43;790.10;;;749.72;;
77612;SDS011;66777;52.282;5.960;2023-07-31T09:26:10;787.63;;;747.20;;
77612;SDS011;66777;52.282;5.960;2023-07-31T09:28:36;784.63;;;744.47;;
77612;SDS011;66777;52.282;5.960;2023-07-31T09:31:02;792.50;;;751.72;;
77612;SDS011;66777;52.282;5.960;2023-07-31T09:33:27;786.97;;;746.67;;
77612;SDS011;66777;52.282;5.960;2023-07-31T09:35:53;795.60;;;754.75;;
77612;SDS011;66777;52.282;5.960;2023-07-31T09:38:19;784.47;;;744.33;;
77612;SDS011;66777;52.282;5.960;2023-07-31T09:40:45;789.40;;;748.63;;
77612;SDS011;66777;52.282;5.960;2023-07-31T09:43:13;786.67;;;746.28;;
77612;SDS011;66777;52.282;5.960;2023-07-31T09:45:42;789.50;;;749.22;;
77612;SDS011;66777;52.282;5.960;2023-07-31T09:48:13;791.50;;;751.10;;
77612;SDS011;66777;52.282;5.960;2023-07-31T09:50:43;784.15;;;743.42;;
77612;SDS011;66777;52.282;5.960;2023-07-31T09:53:10;791.72;;;751.08;;
77612;SDS011;66777;52.282;5.960;2023-07-31T09:55:37;787.50;;;746.95;;
77612;SDS011;66777;52.282;5.960;2023-07-31T09:58:03;788.45;;;747.88;;
77612;SDS011;66777;52.282;5.960;2023-07-31T10:00:31;787.90;;;747.42;;
77612;SDS011;66777;52.282;5.960;2023-07-31T10:03:01;791.60;;;750.78;;
77612;SDS011;66777;52.282;5.960;2023-07-31T10:05:38;791.22;;;750.25;;
77612;SDS011;66777;52.282;5.960;2023-07-31T10:08:13;789.55;;;748.55;;
77612;SDS011;66777;52.282;5.960;2023-07-31T10:10:42;792.47;;;751.80;;
77612;SDS011;66777;52.282;5.960;2023-07-31T10:13:09;792.72;;;751.58;;
77612;SDS011;66777;52.282;5.960;2023-07-31T10:15:35;791.20;;;750.13;;
77612;SDS011;66777;52.282;5.960;2023-07-31T10:18:02;794.88;;;753.38;;
77612;SDS011;66777;52.282;5.960;2023-07-31T10:20:31;795.58;;;753.90;;
77612;SDS011;66777;52.282;5.960;2023-07-31T10:22:58;797.90;;;756.78;;
77612;SDS011;66777;52.282;5.960;2023-07-31T10:25:26;794.15;;;752.88;;
77612;SDS011;66777;52.282;5.960;2023-07-31T10:27:52;797.83;;;756.33;;
77612;SDS011;66777;52.282;5.960;2023-07-31T10:30:21;791.63;;;750.10;;
77612;SDS011;66777;52.282;5.960;2023-07-31T10:32:51;798.80;;;757.05;;
77612;SDS011;66777;52.282;5.960;2023-07-31T10:35:23;795.13;;;753.67;;
77612;SDS011;66777;52.282;5.960;2023-07-31T10:37:50;794.28;;;753.00;;
77612;SDS011;66777;52.282;5.960;2023-07-31T10:40:18;798.05;;;755.88;;
77612;SDS011;66777;52.282;5.960;2023-07-31T10:42:46;793.25;;;752.10;;
77612;SDS011;66777;52.282;5.960;2023-07-31T10:45:12;789.22;;;748.03;;
77612;SDS011;66777;52.282;5.960;2023-07-31T10:47:43;794.03;;;752.28;;
77612;SDS011;66777;52.282;5.960;2023-07-31T10:50:13;792.97;;;751.50;;
77612;SDS011;66777;52.282;5.960;2023-07-31T10:52:52;794.17;;;752.50;;
77612;SDS011;66777;52.282;5.960;2023-07-31T10:58:09;786.80;;;745.08;;
77612;SDS011;66777;52.282;5.960;2023-07-31T11:16:09;797.83;;;754.97;;
77612;SDS011;66777;52.282;5.960;2023-07-31T11:18:39;790.75;;;748.40;;
77612;SDS011;66777;52.282;5.960;2023-07-31T11:21:08;792.42;;;750.13;;
77612;SDS011;66777;52.282;5.960;2023-07-31T11:23:38;799.40;;;756.92;;
77612;SDS011;66777;52.282;5.960;2023-07-31T11:26:04;788.75;;;746.58;;
77612;SDS011;66777;52.282;5.960;2023-07-31T11:28:34;798.63;;;756.33;;
77612;SDS011;66777;52.282;5.960;2023-07-31T11:31:00;790.38;;;747.42;;
77612;SDS011;66777;52.282;5.960;2023-07-31T11:33:26;792.53;;;750.10;;
77612;SDS011;66777;52.282;5.960;2023-07-31T11:35:52;789.90;;;747.58;;
77612;SDS011;66777;52.282;5.960;2023-07-31T11:38:21;798.83;;;756.30;;
77612;SDS011;66777;52.282;5.960;2023-07-31T11:40:48;793.80;;;751.05;;
77612;SDS011;66777;52.282;5.960;2023-07-31T11:43:14;792.92;;;750.33;;
77612;SDS011;66777;52.282;5.960;2023-07-31T11:45:44;792.80;;;750.00;;
77612;SDS011;66777;52.282;5.960;2023-07-31T11:48:23;795.80;;;753.10;;
77612;SDS011;66777;52.282;5.960;2023-07-31T11:50:54;789.97;;;747.80;;
77612;SDS011;66777;52.282;5.960;2023-07-31T11:53:44;796.45;;;753.78;;
77612;SDS011;66777;52.282;5.960;2023-07-31T11:56:09;800.95;;;758.05;;
77612;SDS011;66777;52.282;5.960;2023-07-31T11:58:38;800.25;;;757.53;;
77612;SDS011;66777;52.282;5.960;2023-07-31T12:01:04;799.75;;;756.83;;
77612;SDS011;66777;52.282;5.960;2023-07-31T12:03:31;797.85;;;755.38;;
77612;SDS011;66777;52.282;5.960;2023-07-31T12:05:58;795.35;;;752.80;;
77612;SDS011;66777;52.282;5.960;2023-07-31T12:08:24;795.80;;;753.58;;
77612;SDS011;66777;52.282;5.960;2023-07-31T12:10:50;791.33;;;749.22;;
77612;SDS011;66777;52.282;5.960;2023-07-31T12:13:24;800.38;;;758.30;;
77612;SDS011;66777;52.282;5.960;2023-07-31T12:15:54;790.17;;;748.05;;
77612;SDS011;66777;52.282;5.960;2023-07-31T12:18:21;797.72;;;755.55;;
77612;SDS011;66777;52.282;5.960;2023-07-31T12:20:49;796.35;;;754.15;;
77612;SDS011;66777;52.282;5.960;2023-07-31T12:23:24;788.50;;;746.58;;
77612;SDS011;66777;52.282;5.960;2023-07-31T12:26:13;792.75;;;750.90;;
77612;SDS011;66777;52.282;5.960;2023-07-31T12:28:41;797.60;;;756.03;;
77612;SDS011;66777;52.282;5.960;2023-07-31T12:31:14;799.00;;;756.95;;
77612;SDS011;66777;52.282;5.960;2023-07-31T12:33:45;791.17;;;749.22;;
77612;SDS011;66777;52.282;5.960;2023-07-31T12:36:13;794.30;;;752.63;;
77612;SDS011;66777;52.282;5.960;2023-07-31T12:38:43;786.30;;;744.45;;
77612;SDS011;66777;52.282;5.960;2023-07-31T12:41:09;800.05;;;757.97;;
77612;SDS011;66777;52.282;5.960;2023-07-31T12:43:39;791.60;;;749.58;;
77612;SDS011;66777;52.282;5.960;2023-07-31T12:46:06;801.10;;;758.65;;
77612;SDS011;66777;52.282;5.960;2023-07-31T12:48:33;795.70;;;753.05;;
77612;SDS011;66777;52.282;5.960;2023-07-31T12:50:59;791.78;;;748.92;;
77612;SDS011;66777;52.282;5.960;2023-07-31T12:53:25;801.63;;;758.47;;
77612;SDS011;66777;52.282;5.960;2023-07-31T12:55:51;793.05;;;750.08;;
77612;SDS011;66777;52.282;5.960;2023-07-31T12:58:16;797.35;;;753.90;;
77612;SDS011;66777;52.282;5.960;2023-07-31T13:00:42;792.38;;;749.22;;
77612;SDS011;66777;52.282;5.960;2023-07-31T13:03:10;802.70;;;759.17;;
77612;SDS011;66777;52.282;5.960;2023-07-31T13:05:36;791.40;;;748.38;;
77612;SDS011;66777;52.282;5.960;2023-07-31T13:08:02;795.85;;;753.10;;
77612;SDS011;66777;52.282;5.960;2023-07-31T13:10:27;796.75;;;753.75;;
77612;SDS011;66777;52.282;5.960;2023-07-31T13:12:54;796.50;;;753.55;;
77612;SDS011;66777;52.282;5.960;2023-07-31T13:15:20;800.25;;;757.10;;
77612;SDS011;66777;52.282;5.960;2023-07-31T13:17:46;798.67;;;755.88;;
77612;SDS011;66777;52.282;5.960;2023-07-31T13:20:12;801.47;;;759.05;;
77612;SDS011;66777;52.282;5.960;2023-07-31T13:22:38;797.63;;;754.70;;
77612;SDS011;66777;52.282;5.960;2023-07-31T13:25:03;790.45;;;747.88;;
77612;SDS011;66777;52.282;5.960;2023-07-31T13:27:30;791.90;;;749.35;;
77612;SDS011;66777;52.282;5.960;2023-07-31T13:29:56;798.00;;;755.67;;
77612;SDS011;66777;52.282;5.960;2023-07-31T13:32:22;800.70;;;758.03;;
77612;SDS011;66777;52.282;5.960;2023-07-31T13:34:48;799.13;;;756.08;;
77612;SDS011;66777;52.282;5.960;2023-07-31T13:37:24;795.70;;;752.53;;
77612;SDS011;66777;52.282;5.960;2023-07-31T13:39:49;803.40;;;760.60;;
77612;SDS011;66777;52.282;5.960;2023-07-31T13:42:15;804.95;;;761.92;;
77612;SDS011;66777;52.282;5.960;2023-07-31T13:44:41;801.90;;;758.92;;
77612;SDS011;66777;52.282;5.960;2023-07-31T13:47:07;798.30;;;755.55;;
77612;SDS011;66777;52.282;5.960;2023-07-31T13:49:34;796.47;;;753.63;;
77612;SDS011;66777;52.282;5.960;2023-07-31T13:52:00;800.03;;;757.22;;
77612;SDS011;66777;52.282;5.960;2023-07-31T13:54:26;798.17;;;755.20;;
77612;SDS011;66777;52.282;5.960;2023-07-31T13:56:52;795.33;;;752.58;;
77612;SDS011;66777;52.282;5.960;2023-07-31T13:59:18;790.45;;;748.08;;
77612;SDS011;66777;52.282;5.960;2023-07-31T14:01:44;799.97;;;756.72;;
77612;SDS011;66777;52.282;5.960;2023-07-31T14:04:11;802.15;;;759.10;;
77612;SDS011;66777;52.282;5.960;2023-07-31T14:06:37;805.78;;;762.25;;
77612;SDS011;66777;52.282;5.960;2023-07-31T14:09:03;801.55;;;758.08;;
77612;SDS011;66777;52.282;5.960;2023-07-31T14:11:33;796.35;;;753.47;;
77612;SDS011;66777;52.282;5.960;2023-07-31T14:14:02;802.15;;;759.25;;
77612;SDS011;66777;52.282;5.960;2023-07-31T14:16:30;800.40;;;757.63;;
77612;SDS011;66777;52.282;5.960;2023-07-31T14:18:55;795.95;;;753.15;;
77612;SDS011;66777;52.282;5.960;2023-07-31T14:21:21;792.65;;;750.22;;
77612;SDS011;66777;52.282;5.960;2023-07-31T14:23:46;796.45;;;753.58;;